Time;durP1;ratioP1;P1;durP2;ratioP2;P2;SDS_P1;SDS_P2;PMS_P1;PMS_P2;Temp;Humidity;BMP_temperature;BMP_pressure;BME280_temperature;BME280_humidity;BME280_pressure;Samples;Min_cycle;Max_cycle;Signal;HPM_P1;HPM_P2
2021/11/19 00:01:45;;;;;;;36.87;21.03;;;10.30;99.90;;;;;;2618268;54;20440;-86
2021/11/19 00:04:11;;;;;;;36.80;21.97;;;10.30;99.90;;;;;;2619165;54;20423;-85
2021/11/19 00:06:40;;;;;;;39.90;24.80;;;10.20;99.90;;;;;;2618553;39;20792;-84
2021/11/19 00:09:07;;;;;;;37.03;23.77;;;10.30;99.90;;;;;;2619082;54;20420;-88
2021/11/19 00:11:36;;;;;;;40.10;26.17;;;10.40;99.90;;;;;;2617729;47;20423;-85
2021/11/19 00:14:04;;;;;;;35.23;23.83;;;10.30;99.90;;;;;;2620580;39;20826;-85
2021/11/19 00:16:31;;;;;;;34.83;19.80;;;10.30;99.90;;;;;;2620022;54;20442;-88
2021/11/19 00:18:59;;;;;;;32.63;24.03;;;10.20;99.90;;;;;;2618574;54;20423;-89
2021/11/19 00:21:28;;;;;;;33.67;22.20;;;10.30;99.90;;;;;;2621820;47;20412;-85
2021/11/19 00:23:56;;;;;;;36.07;21.00;;;10.30;99.90;;;;;;2622766;39;20910;-86
2021/11/19 00:26:26;;;;;;;36.73;19.20;;;10.30;99.90;;;;;;2619833;47;20424;-86
2021/11/19 00:28:53;;;;;;;25.93;17.20;;;10.20;99.90;;;;;;2619580;54;20419;-86
2021/11/19 00:31:24;;;;;;;37.97;19.63;;;10.20;99.90;;;;;;2619180;47;20450;-86
2021/11/19 00:33:51;;;;;;;40.60;23.63;;;10.20;99.90;;;;;;2617965;54;20955;-87
2021/11/19 00:36:28;;;;;;;42.53;22.60;;;10.20;99.90;;;;;;2616836;47;20442;-87
2021/11/19 00:39:09;;;;;;;31.10;21.90;;;10.30;99.90;;;;;;2617361;54;20969;-86
2021/11/19 00:41:38;;;;;;;40.60;24.77;;;10.30;99.90;;;;;;2617561;54;20423;-90
2021/11/19 00:44:05;;;;;;;33.30;19.87;;;10.30;99.90;;;;;;2617051;39;20791;-86
2021/11/19 00:46:33;;;;;;;33.20;20.27;;;10.30;99.90;;;;;;2619061;47;20450;-87
2021/11/19 00:49:02;;;;;;;38.73;23.33;;;10.30;99.90;;;;;;2617810;54;20542;-87
2021/11/19 00:51:34;;;;;;;48.27;25.50;;;10.40;99.90;;;;;;2618332;39;20872;-84
2021/11/19 00:54:01;;;;;;;36.40;25.57;;;10.40;99.90;;;;;;2618694;47;20426;-88
2021/11/19 00:56:36;;;;;;;33.67;22.73;;;10.30;99.90;;;;;;2619744;54;20951;-89
2021/11/19 00:59:03;;;;;;;42.33;25.90;;;10.20;99.90;;;;;;2619183;54;20444;-86
2021/11/19 01:01:34;;;;;;;34.20;22.90;;;10.30;99.90;;;;;;2620166;54;20430;-88
2021/11/19 01:04:04;;;;;;;46.27;24.67;;;10.20;99.90;;;;;;2619934;54;20428;-87
2021/11/19 01:06:30;;;;;;;30.27;19.50;;;10.30;99.90;;;;;;2620174;54;20419;-87
2021/11/19 01:08:57;;;;;;;33.30;21.30;;;10.20;99.90;;;;;;2621438;47;20426;-89
2021/11/19 01:11:27;;;;;;;32.17;21.53;;;10.20;99.90;;;;;;2620433;47;20495;-88
2021/11/19 01:13:57;;;;;;;34.73;23.20;;;10.20;99.90;;;;;;2620182;54;20429;-87
2021/11/19 01:16:34;;;;;;;37.87;22.47;;;10.20;99.90;;;;;;2620834;54;20539;-87
2021/11/19 01:19:28;;;;;;;36.40;23.40;;;10.20;99.90;;;;;;2620893;54;22004;-85
2021/11/19 01:21:58;;;;;;;27.80;17.63;;;10.20;99.90;;;;;;2618520;54;20443;-88
2021/11/19 01:24:31;;;;;;;35.13;21.50;;;10.20;99.90;;;;;;2622284;39;20814;-89
2021/11/19 01:26:57;;;;;;;34.20;22.67;;;10.20;99.90;;;;;;2619822;47;20432;-86
2021/11/19 01:29:24;;;;;;;39.60;22.63;;;10.20;99.90;;;;;;2619390;47;20499;-88
2021/11/19 01:31:58;;;;;;;31.30;20.07;;;10.10;99.90;;;;;;2619596;47;21278;-87
2021/11/19 01:34:45;;;;;;;31.70;19.03;;;10.20;99.90;;;;;;2620133;47;20435;-87
2021/11/19 01:37:30;;;;;;;40.93;22.67;;;10.00;99.90;;;;;;2620230;47;20434;-88
2021/11/19 01:40:12;;;;;;;38.23;21.90;;;10.00;99.90;;;;;;2619533;54;20415;-88
2021/11/19 01:42:55;;;;;;;29.70;21.77;;;10.00;99.90;;;;;;2620328;47;20478;-89
2021/11/19 01:45:31;;;;;;;39.00;25.77;;;10.00;99.90;;;;;;2622686;54;20418;-89
2021/11/19 01:47:58;;;;;;;28.77;15.70;;;10.00;99.90;;;;;;2624427;47;20422;-86
2021/11/19 01:50:32;;;;;;;45.17;26.43;;;9.90;99.90;;;;;;2620930;47;20429;-87
2021/11/19 01:53:13;;;;;;;37.23;21.07;;;10.00;99.90;;;;;;2620039;47;20437;-88
2021/11/19 01:55:47;;;;;;;48.73;25.30;;;10.00;99.90;;;;;;2620115;54;20423;-87
2021/11/19 01:58:23;;;;;;;27.67;19.30;;;10.00;99.90;;;;;;2620139;47;20443;-87
2021/11/19 02:01:31;;;;;;;30.57;18.07;;;10.10;99.90;;;;;;2620767;47;20426;-88
2021/11/19 02:04:03;;;;;;;27.33;16.60;;;10.00;99.90;;;;;;2620507;47;20415;-85
2021/11/19 02:06:40;;;;;;;40.97;25.60;;;10.00;99.90;;;;;;2621869;47;20415;-89
2021/11/19 02:09:49;;;;;;;46.40;24.50;;;10.10;99.90;;;;;;2620772;47;20439;-87
2021/11/19 02:12:35;;;;;;;33.07;19.27;;;10.10;99.90;;;;;;2620203;54;20403;-88
2021/11/19 02:15:13;;;;;;;32.07;19.73;;;10.10;99.90;;;;;;2620538;54;20490;-89
2021/11/19 02:17:41;;;;;;;42.90;24.00;;;10.00;99.90;;;;;;2621210;47;20415;-87
2021/11/19 02:20:14;;;;;;;46.90;24.03;;;10.00;99.90;;;;;;2618155;47;20428;-88
2021/11/19 02:22:53;;;;;;;33.73;20.83;;;10.20;99.90;;;;;;2618076;47;20432;-86
2021/11/19 02:25:30;;;;;;;47.00;27.97;;;10.10;99.90;;;;;;2617825;47;20444;-86
2021/11/19 02:28:01;;;;;;;42.53;25.00;;;10.10;99.90;;;;;;2617557;47;20416;-86
2021/11/19 02:30:35;;;;;;;43.97;23.90;;;10.10;99.90;;;;;;2617615;54;20427;-87
2021/11/19 02:33:08;;;;;;;37.07;24.63;;;10.10;99.90;;;;;;2618132;47;21005;-86
2021/11/19 02:36:02;;;;;;;40.70;26.20;;;10.00;99.90;;;;;;2618642;54;20538;-87
2021/11/19 02:38:46;;;;;;;36.27;24.33;;;9.90;99.90;;;;;;2618397;47;20427;-87
2021/11/19 02:41:15;;;;;;;42.63;25.60;;;10.00;99.90;;;;;;2618170;54;20460;-88
2021/11/19 02:43:48;;;;;;;44.93;25.37;;;10.00;99.90;;;;;;2619703;47;20979;-88
2021/11/19 02:46:30;;;;;;;46.00;22.30;;;10.00;99.90;;;;;;2620503;47;20417;-85
2021/11/19 02:48:56;;;;;;;29.67;20.10;;;10.00;99.90;;;;;;2619418;54;20927;-87
2021/11/19 02:51:26;;;;;;;38.40;25.27;;;10.00;99.90;;;;;;2618939;54;20438;-86
2021/11/19 02:53:54;;;;;;;41.93;25.50;;;10.10;99.90;;;;;;2618555;47;20426;-86
2021/11/19 02:56:24;;;;;;;28.77;18.07;;;10.00;99.90;;;;;;2618599;47;20424;-88
2021/11/19 02:58:53;;;;;;;35.63;23.90;;;10.00;99.90;;;;;;2619081;47;20411;-86
2021/11/19 03:01:37;;;;;;;37.27;21.37;;;10.00;99.90;;;;;;2619540;54;20959;-87
2021/11/19 03:04:04;;;;;;;39.87;22.90;;;10.10;99.90;;;;;;2620180;47;20452;-88
2021/11/19 03:06:41;;;;;;;39.93;24.43;;;10.00;99.90;;;;;;2619384;47;20402;-88
2021/11/19 03:09:16;;;;;;;39.30;24.50;;;10.00;99.90;;;;;;2619281;54;20402;-87
2021/11/19 03:11:43;;;;;;;44.80;23.10;;;10.00;99.90;;;;;;2620213;47;20431;-86
2021/11/19 03:14:16;;;;;;;46.40;24.47;;;10.10;99.90;;;;;;2619505;47;20436;-88
2021/11/19 03:16:43;;;;;;;42.00;24.77;;;10.10;99.90;;;;;;2619007;47;20419;-86
2021/11/19 03:19:10;;;;;;;24.73;18.00;;;10.00;99.90;;;;;;2618995;47;20423;-86
2021/11/19 03:21:44;;;;;;;43.63;23.70;;;10.00;99.90;;;;;;2620025;39;20922;-88
2021/11/19 03:24:16;;;;;;;39.93;24.67;;;9.90;99.90;;;;;;2618569;47;20711;-87
2021/11/19 03:26:44;;;;;;;45.40;24.73;;;9.90;99.90;;;;;;2620201;54;20419;-89
2021/11/19 03:29:20;;;;;;;37.67;22.60;;;10.00;99.90;;;;;;2620567;39;20821;-89
2021/11/19 03:31:47;;;;;;;38.00;25.03;;;10.10;99.90;;;;;;2621997;46;20495;-88
2021/11/19 03:34:16;;;;;;;36.53;24.27;;;10.10;99.90;;;;;;2620963;39;20796;-87
2021/11/19 03:36:47;;;;;;;39.07;23.27;;;10.10;99.90;;;;;;2626772;51;20439;-86
2021/11/19 03:39:15;;;;;;;30.37;22.17;;;10.10;99.90;;;;;;2626961;54;20446;-84
2021/11/19 03:41:42;;;;;;;36.17;25.10;;;10.10;99.90;;;;;;2627475;46;20460;-87
2021/11/19 03:44:21;;;;;;;42.13;23.80;;;10.10;99.90;;;;;;2625974;46;20473;-87
2021/11/19 03:46:53;;;;;;;38.30;23.10;;;10.30;99.90;;;;;;2620969;39;20821;-86
2021/11/19 03:49:20;;;;;;;39.87;25.00;;;10.20;99.90;;;;;;2618723;51;20413;-87
2021/11/19 03:51:57;;;;;;;38.80;24.83;;;10.20;99.90;;;;;;2618235;47;20454;-88
2021/11/19 03:54:26;;;;;;;35.17;22.43;;;10.30;99.90;;;;;;2617899;46;20617;-86
2021/11/19 03:56:56;;;;;;;22.67;16.07;;;10.20;99.90;;;;;;2617327;47;20411;-87
2021/11/19 03:59:25;;;;;;;43.37;25.10;;;10.20;99.90;;;;;;2617263;47;20539;-87
2021/11/19 04:01:54;;;;;;;35.67;23.80;;;10.20;99.90;;;;;;2616666;47;20453;-87
2021/11/19 04:04:24;;;;;;;29.90;19.50;;;10.20;99.90;;;;;;2617957;47;20439;-87
2021/11/19 04:06:51;;;;;;;37.47;23.47;;;10.20;99.90;;;;;;2618166;54;20420;-86
2021/11/19 04:09:19;;;;;;;39.90;22.27;;;10.20;99.90;;;;;;2617793;47;20452;-87
2021/11/19 04:11:47;;;;;;;32.87;21.43;;;10.20;99.90;;;;;;2617339;46;20435;-87
2021/11/19 04:14:14;;;;;;;37.90;22.20;;;10.20;99.90;;;;;;2618367;47;20436;-88
2021/11/19 04:16:45;;;;;;;32.70;22.10;;;10.30;99.90;;;;;;2616892;47;20519;-89
2021/11/19 04:19:14;;;;;;;38.87;21.87;;;10.40;99.90;;;;;;2618404;47;20467;-87
2021/11/19 04:21:43;;;;;;;39.83;24.30;;;10.40;99.90;;;;;;2618094;47;20427;-87
2021/11/19 04:24:13;;;;;;;31.30;19.23;;;10.40;99.90;;;;;;2618349;47;20438;-86
2021/11/19 04:27:08;;;;;;;37.80;22.80;;;10.30;99.90;;;;;;2618854;47;20419;-85
2021/11/19 04:29:55;;;;;;;33.30;22.80;;;10.40;99.90;;;;;;2617957;47;20408;-87
2021/11/19 04:32:26;;;;;;;39.17;21.33;;;10.60;99.90;;;;;;2618837;46;20428;-87
2021/11/19 04:35:03;;;;;;;33.47;21.60;;;10.40;99.90;;;;;;2618358;46;20420;-88
2021/11/19 04:37:30;;;;;;;40.83;22.13;;;10.40;99.90;;;;;;2617892;47;20434;-87
2021/11/19 04:40:09;;;;;;;37.63;24.07;;;10.40;99.90;;;;;;2617730;46;20418;-86
2021/11/19 04:42:38;;;;;;;35.90;23.13;;;10.60;99.90;;;;;;2617905;46;20484;-86
2021/11/19 04:45:27;;;;;;;38.63;24.73;;;10.50;99.90;;;;;;2618886;54;21407;-88
2021/11/19 04:48:47;;;;;;;35.30;23.20;;;10.40;99.90;;;;;;2618315;47;20416;-85
2021/11/19 04:51:30;;;;;;;38.20;23.57;;;10.50;99.90;;;;;;2618754;39;20873;-86
2021/11/19 04:54:34;;;;;;;33.80;21.07;;;10.60;99.90;;;;;;2618452;47;20415;-87
2021/11/19 04:57:00;;;;;;;27.17;16.90;;;10.50;99.90;;;;;;2618387;47;20419;-88
2021/11/19 04:59:27;;;;;;;40.93;24.17;;;10.50;99.90;;;;;;2618894;47;20546;-89
2021/11/19 05:02:13;;;;;;;32.23;21.30;;;10.60;99.90;;;;;;2624568;54;21049;-85
2021/11/19 05:05:06;;;;;;;37.03;20.67;;;10.60;99.90;;;;;;2625311;47;20440;-88
2021/11/19 05:07:45;;;;;;;41.20;21.60;;;10.50;99.90;;;;;;2625992;47;20478;-87
2021/11/19 05:10:44;;;;;;;40.57;21.30;;;10.30;99.90;;;;;;2626285;47;20408;-89
2021/11/19 05:13:29;;;;;;;34.37;22.60;;;10.40;99.90;;;;;;2627034;39;20559;-86
2021/11/19 05:16:03;;;;;;;40.73;22.57;;;10.40;99.90;;;;;;2625796;47;20446;-87
2021/11/19 05:18:35;;;;;;;40.27;20.10;;;10.50;99.90;;;;;;2626619;39;20850;-87
2021/11/19 05:21:04;;;;;;;46.03;20.07;;;10.50;99.90;;;;;;2628911;47;20419;-86
2021/11/19 05:23:31;;;;;;;37.33;21.30;;;10.50;99.90;;;;;;2629169;47;20452;-87
2021/11/19 05:25:59;;;;;;;33.60;19.77;;;10.60;99.90;;;;;;2629064;46;20470;-87
2021/11/19 05:28:28;;;;;;;37.30;22.13;;;10.60;99.90;;;;;;2628879;51;20424;-85
2021/11/19 05:31:01;;;;;;;33.83;20.80;;;10.50;99.90;;;;;;2628696;47;20431;-88
2021/11/19 05:33:29;;;;;;;32.53;21.63;;;10.40;99.90;;;;;;2629034;54;20420;-87
2021/11/19 05:35:56;;;;;;;34.30;21.17;;;10.60;99.90;;;;;;2628474;47;20388;-87
2021/11/19 05:38:24;;;;;;;38.57;21.40;;;10.50;99.90;;;;;;2628711;47;20485;-85
2021/11/19 05:40:52;;;;;;;29.13;19.03;;;10.50;99.90;;;;;;2628342;51;20487;-86
2021/11/19 05:43:19;;;;;;;30.73;20.40;;;10.40;99.90;;;;;;2628314;51;20515;-86
2021/11/19 05:45:58;;;;;;;29.10;17.93;;;10.40;99.90;;;;;;2628468;47;20395;-85
2021/11/19 05:48:43;;;;;;;36.00;17.73;;;10.40;99.90;;;;;;2628329;47;20430;-84
2021/11/19 05:51:09;;;;;;;35.83;23.57;;;10.40;99.90;;;;;;2628482;54;20403;-84
2021/11/19 05:53:35;;;;;;;31.90;19.60;;;10.50;99.90;;;;;;2628473;47;20416;-83
2021/11/19 05:56:01;;;;;;;39.30;19.83;;;10.50;99.90;;;;;;2628246;54;20428;-84
2021/11/19 05:58:32;;;;;;;37.03;20.20;;;10.40;99.90;;;;;;2628805;47;20435;-86
2021/11/19 06:01:07;;;;;;;38.13;18.33;;;10.40;99.90;;;;;;2628590;46;20447;-84
2021/11/19 06:03:41;;;;;;;32.50;21.00;;;10.40;99.90;;;;;;2627512;54;20431;-82
2021/11/19 06:06:20;;;;;;;31.13;18.37;;;10.40;99.90;;;;;;2627591;47;20459;-85
2021/11/19 06:09:08;;;;;;;25.00;18.10;;;10.40;99.90;;;;;;2628369;54;20408;-86
2021/11/19 06:11:44;;;;;;;33.27;21.77;;;10.40;99.90;;;;;;2627117;47;21019;-85
2021/11/19 06:14:18;;;;;;;33.97;20.47;;;10.50;99.90;;;;;;2623955;54;20430;-85
2021/11/19 06:16:53;;;;;;;29.80;19.40;;;10.40;99.90;;;;;;2620174;54;20442;-83
2021/11/19 06:19:22;;;;;;;34.13;22.00;;;10.40;99.90;;;;;;2620582;39;20814;-87
2021/11/19 06:22:34;;;;;;;35.90;20.70;;;10.40;99.90;;;;;;2619515;47;20420;-84
2021/11/19 06:25:03;;;;;;;36.63;21.57;;;10.50;99.90;;;;;;2618569;47;20415;-83
2021/11/19 06:27:34;;;;;;;30.40;18.30;;;10.60;99.90;;;;;;2619526;54;20423;-84
2021/11/19 06:30:05;;;;;;;41.20;22.47;;;10.60;99.90;;;;;;2618149;51;21151;-84
2021/11/19 06:32:32;;;;;;;33.97;22.00;;;10.50;99.90;;;;;;2616766;47;20404;-85
2021/11/19 06:35:00;;;;;;;41.73;23.17;;;10.60;99.90;;;;;;2616775;54;20485;-85
2021/11/19 06:37:47;;;;;;;31.20;19.33;;;10.60;99.90;;;;;;2617155;47;20438;-86
2021/11/19 06:40:26;;;;;;;32.63;22.43;;;10.60;99.90;;;;;;2616994;47;20449;-85
2021/11/19 06:43:14;;;;;;;27.63;16.80;;;10.60;99.90;;;;;;2616180;54;21010;-86
2021/11/19 06:46:01;;;;;;;28.10;18.70;;;10.50;99.90;;;;;;2616410;47;20403;-85
2021/11/19 06:49:07;;;;;;;32.67;22.03;;;10.60;99.90;;;;;;2617016;47;20396;-86
2021/11/19 06:51:51;;;;;;;29.20;19.50;;;10.60;99.90;;;;;;2617075;54;20403;-86
2021/11/19 06:54:39;;;;;;;39.43;22.70;;;10.60;99.90;;;;;;2617051;47;20423;-85
2021/11/19 06:57:07;;;;;;;33.57;22.23;;;10.60;99.90;;;;;;2617203;54;20399;-86
2021/11/19 06:59:44;;;;;;;40.70;22.00;;;10.70;99.90;;;;;;2616670;47;20412;-83
2021/11/19 07:02:17;;;;;;;40.50;21.87;;;10.60;99.90;;;;;;2616006;54;21005;-84
2021/11/19 07:04:57;;;;;;;36.50;23.10;;;10.60;99.90;;;;;;2616557;39;20823;-83
2021/11/19 07:07:23;;;;;;;33.97;22.13;;;10.60;99.90;;;;;;2615898;47;21087;-84
2021/11/19 07:09:50;;;;;;;40.13;22.10;;;10.70;99.90;;;;;;2616207;54;20423;-85
2021/11/19 07:12:21;;;;;;;38.63;23.20;;;10.80;99.90;;;;;;2616056;46;20461;-83
2021/11/19 07:14:53;;;;;;;33.33;22.43;;;10.60;99.90;;;;;;2615823;39;20791;-85
2021/11/19 07:17:19;;;;;;;29.40;19.03;;;10.60;99.90;;;;;;2615035;47;20419;-83
2021/11/19 07:19:45;;;;;;;35.43;22.63;;;10.60;99.90;;;;;;2614891;51;20443;-84
2021/11/19 07:22:11;;;;;;;39.10;24.63;;;10.70;99.90;;;;;;2614978;54;20170;-84
2021/11/19 07:24:41;;;;;;;33.20;20.20;;;10.60;99.90;;;;;;2616445;39;20666;-84
2021/11/19 07:27:15;;;;;;;37.50;23.17;;;10.60;99.90;;;;;;2614620;47;20441;-85
2021/11/19 07:29:43;;;;;;;34.27;20.50;;;10.70;99.90;;;;;;2614207;54;20439;-84
2021/11/19 07:32:29;;;;;;;41.47;23.83;;;10.70;99.90;;;;;;2614833;54;20414;-84
2021/11/19 07:35:21;;;;;;;34.40;23.50;;;10.70;99.90;;;;;;2612559;47;20417;-82
2021/11/19 07:38:15;;;;;;;26.73;19.10;;;10.90;99.90;;;;;;2613966;47;20419;-83
2021/11/19 07:41:12;;;;;;;32.27;22.20;;;10.70;99.90;;;;;;2614666;46;20403;-82
2021/11/19 07:43:51;;;;;;;39.57;23.37;;;10.70;99.90;;;;;;2613749;54;20430;-86
2021/11/19 07:46:25;;;;;;;32.40;22.47;;;10.80;99.90;;;;;;2614238;54;20429;-85
2021/11/19 07:49:04;;;;;;;42.17;24.33;;;10.80;99.90;;;;;;2615688;47;20527;-84
2021/11/19 07:51:33;;;;;;;40.97;23.80;;;10.80;99.90;;;;;;2612020;46;20433;-85
2021/11/19 07:54:01;;;;;;;35.00;21.00;;;10.90;99.90;;;;;;2612372;47;20452;-85
2021/11/19 07:56:31;;;;;;;31.80;21.43;;;10.80;99.90;;;;;;2613008;47;20488;-84
2021/11/19 07:59:09;;;;;;;31.10;20.87;;;10.90;99.90;;;;;;2612480;47;20462;-82
2021/11/19 08:01:45;;;;;;;33.10;22.17;;;10.80;99.90;;;;;;2613452;54;20439;-84
2021/11/19 08:04:15;;;;;;;30.53;17.53;;;10.80;99.90;;;;;;2615591;47;20424;-85
2021/11/19 08:06:46;;;;;;;30.17;20.57;;;10.90;99.90;;;;;;2614590;47;20399;-83
2021/11/19 08:09:31;;;;;;;34.57;19.90;;;10.90;99.90;;;;;;2615078;54;20429;-83
2021/11/19 08:12:09;;;;;;;30.83;20.47;;;10.80;99.90;;;;;;2615429;47;20530;-82
2021/11/19 08:14:37;;;;;;;28.90;19.47;;;10.80;99.90;;;;;;2615871;39;21034;-84
2021/11/19 08:17:15;;;;;;;28.83;18.03;;;10.80;99.90;;;;;;2616545;47;20450;-83
2021/11/19 08:19:46;;;;;;;33.90;20.23;;;10.90;99.90;;;;;;2654201;36;20463;-84
2021/11/19 08:22:23;;;;;;;29.93;19.90;;;11.00;99.90;;;;;;2616446;54;20464;-83
2021/11/19 08:24:53;;;;;;;29.10;19.07;;;10.90;99.90;;;;;;2617644;54;20411;-82
2021/11/19 08:27:31;;;;;;;34.53;18.70;;;10.90;99.90;;;;;;2617145;54;20462;-83
2021/11/19 08:29:59;;;;;;;27.67;18.13;;;10.90;99.90;;;;;;2611247;47;20485;-70
2021/11/19 08:32:26;;;;;;;22.10;14.87;;;10.80;99.90;;;;;;2623543;36;20531;-73
2021/11/19 08:34:53;;;;;;;27.27;14.63;;;10.80;99.90;;;;;;2608023;54;21466;-73
2021/11/19 08:37:21;;;;;;;26.60;17.83;;;10.80;99.90;;;;;;2610584;54;20427;-72
2021/11/19 08:39:47;;;;;;;27.80;16.27;;;10.80;99.90;;;;;;2607876;54;20799;-72
2021/11/19 08:42:13;;;;;;;21.87;14.73;;;10.80;99.90;;;;;;2607035;54;20422;-74
2021/11/19 08:44:42;;;;;;;23.10;15.73;;;10.80;99.90;;;;;;2608253;54;20154;-71
2021/11/19 08:47:09;;;;;;;27.10;17.17;;;10.90;99.90;;;;;;2607931;54;20422;-70
2021/11/19 08:49:37;;;;;;;25.90;16.80;;;10.90;99.90;;;;;;2606296;54;20457;-71
2021/11/19 08:52:06;;;;;;;21.23;15.33;;;10.90;99.90;;;;;;2608878;39;20837;-70
2021/11/19 08:54:33;;;;;;;25.90;15.73;;;10.90;99.90;;;;;;2608806;54;20487;-73
2021/11/19 08:57:03;;;;;;;24.13;16.20;;;10.90;99.90;;;;;;2608791;54;20403;-72
2021/11/19 08:59:32;;;;;;;25.10;16.60;;;10.90;99.90;;;;;;2607267;54;20960;-72
2021/11/19 09:01:59;;;;;;;26.83;17.57;;;10.90;99.90;;;;;;2608845;54;20400;-73
2021/11/19 09:04:27;;;;;;;26.90;17.53;;;11.00;99.90;;;;;;2608784;54;20522;-71
2021/11/19 09:06:56;;;;;;;29.17;18.47;;;10.90;99.90;;;;;;2609333;54;20462;-72
2021/11/19 09:09:24;;;;;;;28.87;19.57;;;10.90;99.90;;;;;;2606978;39;20888;-72
2021/11/19 09:11:50;;;;;;;26.60;19.00;;;10.90;99.90;;;;;;2608649;39;21889;-72
2021/11/19 09:14:17;;;;;;;24.83;16.83;;;11.00;99.90;;;;;;2606910;54;20453;-72
2021/11/19 09:17:12;;;;;;;25.63;16.27;;;11.00;99.90;;;;;;2608503;54;20412;-72
2021/11/19 09:20:17;;;;;;;29.00;20.00;;;11.00;99.90;;;;;;2607115;47;22091;-72
2021/11/19 09:22:50;;;;;;;31.97;21.17;;;11.10;99.90;;;;;;2608136;47;20431;-72
2021/11/19 09:25:19;;;;;;;33.87;21.73;;;11.10;99.90;;;;;;2608275;54;21070;-73
2021/11/19 09:27:46;;;;;;;28.20;17.37;;;11.10;99.90;;;;;;2608463;54;20399;-74
2021/11/19 09:30:26;;;;;;;33.30;19.23;;;11.20;99.90;;;;;;2609191;39;20827;-73
2021/11/19 09:32:55;;;;;;;38.70;22.77;;;11.20;99.90;;;;;;2606016;54;20402;-72
2021/11/19 09:35:24;;;;;;;35.40;21.77;;;11.10;99.90;;;;;;2607807;54;20408;-71
2021/11/19 09:37:52;;;;;;;25.00;16.77;;;11.20;99.90;;;;;;2609667;47;20439;-71
2021/11/19 09:40:23;;;;;;;25.93;17.93;;;11.10;99.90;;;;;;2608854;46;20430;-74
2021/11/19 09:42:54;;;;;;;32.20;20.50;;;11.10;99.90;;;;;;2605969;54;20963;-71
2021/11/19 09:45:43;;;;;;;38.20;24.30;;;11.10;99.90;;;;;;2608535;54;20415;-72
2021/11/19 09:48:30;;;;;;;36.57;22.60;;;11.10;99.90;;;;;;2607563;54;20408;-72
2021/11/19 09:50:59;;;;;;;43.80;25.90;;;11.20;99.90;;;;;;2609199;31;21490;-70
2021/11/19 09:53:34;;;;;;;42.93;28.40;;;11.20;99.90;;;;;;2607615;54;20398;-71
2021/11/19 09:56:09;;;;;;;37.37;23.40;;;11.30;99.90;;;;;;2609284;54;20405;-71
2021/11/19 09:58:39;;;;;;;47.77;27.47;;;11.30;99.90;;;;;;2608098;39;21050;-73
2021/11/19 10:01:20;;;;;;;49.43;27.17;;;11.30;99.90;;;;;;2608491;51;20416;-74
2021/11/19 10:04:15;;;;;;;39.13;24.40;;;11.30;99.90;;;;;;2608827;54;20439;-73
2021/11/19 10:06:53;;;;;;;43.83;26.10;;;11.30;99.90;;;;;;2607793;47;20465;-72
2021/11/19 10:09:58;;;;;;;36.77;26.60;;;11.40;99.90;;;;;;2607244;54;20435;-73
2021/11/19 10:12:28;;;;;;;40.83;27.60;;;11.40;99.90;;;;;;2606106;54;20522;-74
2021/11/19 10:15:19;;;;;;;48.07;28.60;;;11.60;99.90;;;;;;2609001;39;20908;-72
2021/11/19 10:18:04;;;;;;;45.80;26.60;;;11.50;99.90;;;;;;2606751;31;21020;-74
2021/11/19 10:20:47;;;;;;;38.10;22.83;;;11.40;99.90;;;;;;2607574;54;20411;-72
2021/11/19 10:23:19;;;;;;;43.03;23.00;;;11.40;99.90;;;;;;2606396;54;20412;-72
2021/11/19 10:25:52;;;;;;;38.97;22.80;;;11.40;99.90;;;;;;2608788;54;20477;-72
2021/11/19 10:28:39;;;;;;;39.97;25.47;;;11.30;99.90;;;;;;2606633;47;20437;-72
2021/11/19 10:31:07;;;;;;;46.20;30.70;;;11.40;99.90;;;;;;2607159;54;20447;-73
2021/11/19 10:34:07;;;;;;;38.97;21.70;;;11.40;99.90;;;;;;2606651;54;20490;-74
2021/11/19 10:36:57;;;;;;;47.80;31.43;;;11.30;99.90;;;;;;2607809;46;20433;-73
2021/11/19 10:39:32;;;;;;;52.63;30.77;;;11.30;99.90;;;;;;2606865;54;20398;-73
2021/11/19 10:42:13;;;;;;;49.93;29.63;;;11.40;99.90;;;;;;2607299;54;20410;-73
2021/11/19 10:44:48;;;;;;;46.60;27.50;;;11.40;99.90;;;;;;2608438;47;21496;-72
2021/11/19 10:47:57;;;;;;;50.93;28.47;;;11.40;99.90;;;;;;2606650;47;20519;-72
2021/11/19 10:50:59;;;;;;;50.50;30.73;;;11.50;99.90;;;;;;2609016;54;20422;-73
2021/11/19 10:53:44;;;;;;;51.47;30.53;;;11.50;99.90;;;;;;2606955;54;20506;-71
2021/11/19 10:56:27;;;;;;;42.03;25.60;;;11.60;99.90;;;;;;2608801;54;20423;-72
2021/11/19 10:58:59;;;;;;;42.43;26.93;;;11.60;99.90;;;;;;2607927;54;20919;-72
2021/11/19 11:01:38;;;;;;;48.17;28.90;;;11.60;99.90;;;;;;2608256;54;20430;-73
2021/11/19 11:04:15;;;;;;;44.03;29.97;;;11.60;99.90;;;;;;2606498;54;21007;-71
2021/11/19 11:06:52;;;;;;;49.07;32.30;;;11.70;99.90;;;;;;2607327;54;20428;-73
2021/11/19 11:09:21;;;;;;;51.77;31.40;;;11.80;99.90;;;;;;2607105;54;20415;-74
2021/11/19 11:12:15;;;;;;;53.03;31.33;;;11.90;99.90;;;;;;2626674;36;20489;-71
2021/11/19 11:14:44;;;;;;;45.63;28.03;;;11.90;99.90;;;;;;2608337;54;20403;-74
2021/11/19 11:17:20;;;;;;;48.90;28.43;;;12.00;99.90;;;;;;2610192;54;20427;-73
2021/11/19 11:19:48;;;;;;;48.27;31.40;;;11.80;99.90;;;;;;2608879;54;20415;-74
2021/11/19 11:22:21;;;;;;;47.97;28.83;;;12.00;99.90;;;;;;2607581;54;20485;-75
2021/11/19 11:24:58;;;;;;;48.40;29.13;;;11.90;99.90;;;;;;2607971;48;20462;-72
2021/11/19 11:27:58;;;;;;;47.40;29.63;;;11.90;99.90;;;;;;2608561;47;20415;-72
2021/11/19 11:30:52;;;;;;;44.73;24.90;;;11.90;99.90;;;;;;2608629;54;20447;-73
2021/11/19 11:33:23;;;;;;;44.30;28.17;;;12.10;99.90;;;;;;2607577;54;20396;-72
2021/11/19 11:36:04;;;;;;;41.37;29.10;;;12.00;99.90;;;;;;2607931;54;20515;-73
2021/11/19 11:38:51;;;;;;;36.30;22.57;;;12.00;99.90;;;;;;2607034;54;20970;-72
2021/11/19 11:41:26;;;;;;;43.03;24.37;;;12.00;99.90;;;;;;2607153;54;21264;-74
2021/11/19 11:44:10;;;;;;;47.30;29.97;;;12.00;99.90;;;;;;2606718;54;20533;-73
2021/11/19 11:47:02;;;;;;;48.93;29.80;;;12.00;99.90;;;;;;2607532;54;20423;-73
2021/11/19 11:49:31;;;;;;;46.37;30.83;;;12.40;99.90;;;;;;2609727;54;20938;-74
2021/11/19 11:52:19;;;;;;;43.17;26.23;;;12.30;99.90;;;;;;2607479;39;20517;-73
2021/11/19 11:55:07;;;;;;;47.73;29.10;;;12.30;99.90;;;;;;2608445;54;20388;-74
2021/11/19 11:57:36;;;;;;;36.63;23.80;;;12.20;99.90;;;;;;2609778;54;20423;-74
2021/11/19 12:00:34;;;;;;;50.30;30.80;;;12.20;99.90;;;;;;2609091;54;20923;-74
2021/11/19 12:03:17;;;;;;;40.40;25.90;;;12.20;99.90;;;;;;2606623;54;20466;-74
2021/11/19 12:05:58;;;;;;;36.80;26.33;;;12.20;99.90;;;;;;2608229;54;20380;-73
2021/11/19 12:08:45;;;;;;;34.67;23.23;;;12.10;99.90;;;;;;2610262;39;20526;-72
2021/11/19 12:11:51;;;;;;;44.80;27.70;;;12.10;99.90;;;;;;2607830;54;20421;-73
2021/11/19 12:14:42;;;;;;;42.20;25.90;;;12.10;99.90;;;;;;2608524;54;20415;-74
2021/11/19 12:17:14;;;;;;;40.30;25.43;;;12.20;99.90;;;;;;2607613;54;20392;-73
2021/11/19 12:20:05;;;;;;;35.10;26.70;;;12.20;99.90;;;;;;2608737;54;20403;-73
2021/11/19 12:22:49;;;;;;;36.63;24.77;;;12.30;99.90;;;;;;2605653;54;20488;-73
2021/11/19 12:25:38;;;;;;;41.73;25.13;;;12.20;99.90;;;;;;2607100;54;20427;-74
2021/11/19 12:28:21;;;;;;;36.03;25.37;;;12.40;99.90;;;;;;2607717;54;20509;-74
2021/11/19 12:30:49;;;;;;;32.30;25.43;;;12.40;99.90;;;;;;2606343;54;20420;-73
2021/11/19 12:33:30;;;;;;;40.87;28.13;;;12.50;99.90;;;;;;2607540;54;20438;-73
2021/11/19 12:36:30;;;;;;;35.27;24.40;;;12.60;99.90;;;;;;2607447;54;20559;-74
2021/11/19 12:38:59;;;;;;;39.70;27.40;;;12.50;99.90;;;;;;2606342;39;20975;-74
2021/11/19 12:42:04;;;;;;;42.07;24.60;;;12.70;99.90;;;;;;2607286;54;20410;-75
2021/11/19 12:45:04;;;;;;;36.70;26.63;;;12.60;99.90;;;;;;2608455;54;20978;-75
2021/11/19 12:47:48;;;;;;;39.17;26.33;;;12.60;99.90;;;;;;2603592;54;20503;-73
2021/11/19 12:50:19;;;;;;;32.10;20.67;;;12.30;99.90;;;;;;2605645;54;20432;-74
2021/11/19 12:53:26;;;;;;;41.47;25.53;;;12.50;99.90;;;;;;2606069;51;20431;-73
2021/11/19 12:56:07;;;;;;;36.00;25.00;;;12.60;99.90;;;;;;2607366;54;20427;-73
2021/11/19 12:58:36;;;;;;;40.03;26.47;;;12.50;99.90;;;;;;2606839;54;20416;-73
2021/11/19 13:01:21;;;;;;;40.80;27.53;;;12.40;99.90;;;;;;2606145;54;20939;-73
2021/11/19 13:03:59;;;;;;;41.13;26.50;;;12.60;99.90;;;;;;2613475;54;20484;-74
2021/11/19 13:06:26;;;;;;;40.93;26.63;;;12.70;99.90;;;;;;2606108;54;20458;-73
2021/11/19 13:08:54;;;;;;;40.37;25.90;;;12.50;99.90;;;;;;2606779;54;20980;-74
2021/11/19 13:11:36;;;;;;;36.53;21.77;;;12.30;99.90;;;;;;2605556;54;21185;-73
2021/11/19 13:14:18;;;;;;;37.83;24.97;;;12.20;99.90;;;;;;2606342;54;20426;-73